Essex — A8TN9 — position and weather

sailwx.info

Track history (hours):
 
Tides and Currents Weather Stations Pressure Air Temp Water Temp Dewpoint Dewpoint Depression Visibility Wind Speed Wind Dir Waves Ship Positions

Essex

Last reported at 2018-Jun-21 06:46 UTC. Time now 2018-Jun-21 19:56 UTC.
Position N 51°48' E 002°36'.

Length 174 m; draft 6.7 m.

Type: Tanker. MMSI: 636014391.

Date/timePositionNaut miles runAvg speedWind from/ knotsBaromVisibWave heightAir tempDewpointWater temp
2018-Jun-21 06:46N 51°48' E 002°36'310.6
2018-Jun-21 06:28N 51°45' E 002°34'510.9
2018-Jun-21 05:59N 51°41' E 002°29'510.5
2018-Jun-21 05:30N 51°37' E 002°23'510.4
2018-Jun-21 05:00N 51°33' E 002°18'510.3
2018-Jun-21 04:30N 51°29' E 002°13'510.0
2018-Jun-21 04:00N 51°25' E 002°07'5 9.8
2018-Jun-21 03:30N 51°22' E 002°02'5 9.7
2018-Jun-21 03:00N 51°18' E 001°56'4 9.0
2018-Jun-21 02:30N 51°15' E 001°52'5 9.1
2018-Jun-21 02:00N 51°12' E 001°47'4 8.5
2018-Jun-21 01:30N 51°08' E 001°43'4 8.7
2018-Jun-21 01:00N 51°05' E 001°39'5 9.3
2018-Jun-21 00:30N 51°01' E 001°34'5 9.5
2018-Jun-21 00:00N 50°57' E 001°30'5 9.6
2018-Jun-20 23:30N 50°53' E 001°26'5 9.8
2018-Jun-20 23:00N 50°48' E 001°24'510.0
2018-Jun-20 22:30N 50°43' E 001°22'510.1
2018-Jun-20 22:00N 50°39' E 001°17'510.6
2018-Jun-20 21:30N 50°36' E 001°10'910.6
2018-Jun-20 20:37N 50°30' E 000°60'210.5
2018-Jun-20 20:28N 50°29' E 000°57'610.7
2018-Jun-20 19:52N 50°28' E 000°47'410.6
2018-Jun-20 19:28N 50°26' E 000°41'1110.7
2018-Jun-20 18:25N 50°23' E 000°24'410.7
2018-Jun-20 18:00N 50°22' E 000°17'610.8
2018-Jun-20 17:29N 50°21' E 000°09'511.1
2018-Jun-20 17:00N 50°19' E 000°01'611.4
2018-Jun-20 16:30N 50°18' W 000°08'611.7
2018-Jun-20 16:00N 50°16' W 000°17'612.2
2018-Jun-20 15:30N 50°15' W 000°26'612.8
2018-Jun-20 15:00N 50°13' W 000°36'713.2
2018-Jun-20 14:30N 50°12' W 000°46'713.6
2018-Jun-20 14:00N 50°10' W 000°56'713.9
2018-Jun-20 13:30N 50°08' W 001°06'814.1
2018-Jun-20 12:57N 50°06' W 001°18'614.1
2018-Jun-20 12:30N 50°04' W 001°28'813.9
2018-Jun-20 11:56N 50°02' W 001°40'613.5
2018-Jun-20 11:30N 50°00' W 001°48'2511.9
2018-Jun-20 09:24N 49°54' W 002°26'510.5
2018-Jun-20 08:58N 49°54' W 002°33'812.0
2018-Jun-20 08:19N 49°52' W 002°44'512.2
2018-Jun-20 07:55N 49°50' W 002°51'711.9
2018-Jun-20 07:18N 49°46' W 003°01'311.8
2018-Jun-20 07:00N 49°44' W 003°05'611.8
2018-Jun-20 06:28N 49°41' W 003°14'712.7
2018-Jun-20 05:54N 49°37' W 003°24'612.3
2018-Jun-20 05:23N 49°34' W 003°32'512.2
2018-Jun-20 04:57N 49°32' W 003°39'512.2
2018-Jun-20 04:30N 49°29' W 003°46'612.4
2018-Jun-20 04:00N 49°25' W 003°54'1112.2
2018-Jun-20 03:06N 49°19' W 004°09'1012.3
2018-Jun-20 02:16N 49°15' W 004°23'312.4
2018-Jun-20 02:00N 49°13' W 004°27'612.3
2018-Jun-20 01:30N 49°10' W 004°35'612.5
2018-Jun-20 01:00N 49°07' W 004°43'712.6
2018-Jun-20 00:26N 49°03' W 004°53'712.8
2018-Jun-19 23:55N 49°00' W 005°02'513.1
2018-Jun-19 23:30N 48°57' W 005°08'713.3
2018-Jun-19 23:00N 48°53' W 005°17'713.5
2018-Jun-19 22:31N 48°51' W 005°26'713.7
2018-Jun-19 22:00N 48°47' W 005°36'713.5
2018-Jun-19 21:31N 48°42' W 005°41'1713.9
2018-Jun-19 20:16N 48°26' W 005°54'813.9
2018-Jun-19 19:41N 48°19' W 005°59'413.9
2018-Jun-19 19:26N 48°16' W 006°02'713.8
2018-Jun-19 18:53N 48°10' W 006°07'814.1
2018-Jun-19 18:19N 48°02' W 006°12'413.8
2018-Jun-19 18:00N 47°59' W 006°15'50312.2
2018-Jun-18 00:44N 40°01' W 009°57'311.5
2018-Jun-18 00:29N 39°58' W 009°57'511.2
2018-Jun-18 00:00N 39°53' W 009°57'511.2
2018-Jun-17 23:30N 39°47' W 009°57'611.3
2018-Jun-17 22:58N 39°41' W 009°57'811.7
2018-Jun-17 22:15N 39°33' W 009°57'311.6
2018-Jun-17 22:00N 39°30' W 009°57'611.5
2018-Jun-17 21:30N 39°24' W 009°57'611.3
2018-Jun-17 21:00N 39°19' W 009°57'611.8
2018-Jun-17 20:31N 39°13' W 009°57'612.0
2018-Jun-17 20:00N 39°07' W 009°57'612.2
2018-Jun-17 19:30N 39°01' W 009°57'611.8
2018-Jun-17 19:00N 38°55' W 009°58'611.9
2018-Jun-17 18:30N 38°49' W 009°58'611.9
2018-Jun-17 18:01N 38°43' W 009°58'611.7
2018-Jun-17 17:30N 38°37' W 009°56'611.1
2018-Jun-17 17:01N 38°32' W 009°54'510.7
2018-Jun-17 16:30N 38°27' W 009°52'510.6
2018-Jun-17 16:01N 38°21' W 009°51'510.9
2018-Jun-17 15:31N 38°16' W 009°49'511.0
2018-Jun-17 15:01N 38°11' W 009°48'611.1
2018-Jun-17 14:31N 38°05' W 009°46'611.2
2018-Jun-17 14:01N 37°60' W 009°44'611.3
2018-Jun-17 13:30N 37°54' W 009°43'611.6
2018-Jun-17 13:00N 37°49' W 009°41'611.4
2018-Jun-17 12:31N 37°43' W 009°39'611.9
2018-Jun-17 12:01N 37°37' W 009°38'612.5
2018-Jun-17 11:30N 37°31' W 009°36'612.5
2018-Jun-17 11:00N 37°25' W 009°34'613.0
2018-Jun-17 10:30N 37°19' W 009°32'713.2
2018-Jun-17 10:01N 37°13' W 009°30'612.9
2018-Jun-17 09:30N 37°06' W 009°28'612.7
2018-Jun-17 09:00N 37°00' W 009°27'612.6
2018-Jun-17 08:31N 36°54' W 009°25'612.5
2018-Jun-17 08:00N 36°48' W 009°21'713.2
2018-Jun-17 07:31N 36°44' W 009°16'1312.5
2018-Jun-17 06:30N 36°38' W 009°02'713.5
2018-Jun-17 05:58N 36°36' W 008°53'613.0
2018-Jun-17 05:30N 36°34' W 008°46'713.5
2018-Jun-17 04:59N 36°33' W 008°37'913.7
2018-Jun-17 04:19N 36°31' W 008°26'413.8
2018-Jun-17 04:00N 36°30' W 008°21'813.8
2018-Jun-17 03:27N 36°28' W 008°12'614.1
2018-Jun-17 03:00N 36°26' W 008°04'714.1
2018-Jun-17 02:30N 36°24' W 007°56'714.4
2018-Jun-17 02:00N 36°22' W 007°47'11013.1
2018-Jun-16 17:37N 35°58' W 005°34'212.2
2018-Jun-16 17:29N 35°58' W 005°32'6 0.2
2018-Jun-15 04:20N 35°52' W 005°34'0 0.0
2018-Jun-14 21:08N 35°52' W 005°34'0 0.1
2018-Jun-14 20:50N 35°52' W 005°34'0 0.0
2018-Jun-14 20:14N 35°52' W 005°34'0 0.0
2018-Jun-14 19:56N 35°52' W 005°34'0 0.0
2018-Jun-14 01:26N 35°52' W 005°34'0 0.0
2018-Jun-13 22:08N 35°52' W 005°34'0 0.0
2018-Jun-13 21:50N 35°52' W 005°34'0 0.2
2018-Jun-13 20:50N 35°52' W 005°34'0 0.0
2018-Jun-13 12:26N 35°52' W 005°34'  
Track history (hours):
 
Tides and Currents Weather Stations Pressure Air Temp Water Temp Dewpoint Dewpoint Depression Visibility Wind Speed Wind Dir Waves Ship Positions

Essex

Last reported at 2018-Jun-21 06:46 UTC. Time now 2018-Jun-21 19:56 UTC.
Position N 51°48' E 002°36'.

Length 174 m; draft 6.7 m.

Type: Tanker. MMSI: 636014391.

Date/timePositionNaut miles runAvg speedWind from/ knotsBaromVisibWave heightAir tempDewpointWater temp
2018-Jun-21 06:46N 51°48' E 002°36'310.6
2018-Jun-21 06:28N 51°45' E 002°34'510.9
2018-Jun-21 05:59N 51°41' E 002°29'510.5
2018-Jun-21 05:30N 51°37' E 002°23'510.4
2018-Jun-21 05:00N 51°33' E 002°18'510.3
2018-Jun-21 04:30N 51°29' E 002°13'510.0
2018-Jun-21 04:00N 51°25' E 002°07'5 9.8
2018-Jun-21 03:30N 51°22' E 002°02'5 9.7
2018-Jun-21 03:00N 51°18' E 001°56'4 9.0
2018-Jun-21 02:30N 51°15' E 001°52'5 9.1
2018-Jun-21 02:00N 51°12' E 001°47'4 8.5
2018-Jun-21 01:30N 51°08' E 001°43'4 8.7
2018-Jun-21 01:00N 51°05' E 001°39'5 9.3
2018-Jun-21 00:30N 51°01' E 001°34'5 9.5
2018-Jun-21 00:00N 50°57' E 001°30'5 9.6
2018-Jun-20 23:30N 50°53' E 001°26'5 9.8
2018-Jun-20 23:00N 50°48' E 001°24'510.0
2018-Jun-20 22:30N 50°43' E 001°22'510.1
2018-Jun-20 22:00N 50°39' E 001°17'510.6
2018-Jun-20 21:30N 50°36' E 001°10'910.6
2018-Jun-20 20:37N 50°30' E 000°60'210.5
2018-Jun-20 20:28N 50°29' E 000°57'610.7
2018-Jun-20 19:52N 50°28' E 000°47'410.6
2018-Jun-20 19:28N 50°26' E 000°41'1110.7
2018-Jun-20 18:25N 50°23' E 000°24'410.7
2018-Jun-20 18:00N 50°22' E 000°17'610.8
2018-Jun-20 17:29N 50°21' E 000°09'511.1
2018-Jun-20 17:00N 50°19' E 000°01'611.4
2018-Jun-20 16:30N 50°18' W 000°08'611.7
2018-Jun-20 16:00N 50°16' W 000°17'612.2
2018-Jun-20 15:30N 50°15' W 000°26'612.8
2018-Jun-20 15:00N 50°13' W 000°36'713.2
2018-Jun-20 14:30N 50°12' W 000°46'713.6
2018-Jun-20 14:00N 50°10' W 000°56'713.9
2018-Jun-20 13:30N 50°08' W 001°06'814.1
2018-Jun-20 12:57N 50°06' W 001°18'614.1
2018-Jun-20 12:30N 50°04' W 001°28'813.9
2018-Jun-20 11:56N 50°02' W 001°40'613.5
2018-Jun-20 11:30N 50°00' W 001°48'2511.9
2018-Jun-20 09:24N 49°54' W 002°26'510.5
2018-Jun-20 08:58N 49°54' W 002°33'812.0
2018-Jun-20 08:19N 49°52' W 002°44'512.2
2018-Jun-20 07:55N 49°50' W 002°51'711.9
2018-Jun-20 07:18N 49°46' W 003°01'311.8
2018-Jun-20 07:00N 49°44' W 003°05'611.8
2018-Jun-20 06:28N 49°41' W 003°14'712.7
2018-Jun-20 05:54N 49°37' W 003°24'612.3
2018-Jun-20 05:23N 49°34' W 003°32'512.2
2018-Jun-20 04:57N 49°32' W 003°39'512.2
2018-Jun-20 04:30N 49°29' W 003°46'612.4
2018-Jun-20 04:00N 49°25' W 003°54'1112.2
2018-Jun-20 03:06N 49°19' W 004°09'1012.3
2018-Jun-20 02:16N 49°15' W 004°23'312.4
2018-Jun-20 02:00N 49°13' W 004°27'612.3
2018-Jun-20 01:30N 49°10' W 004°35'612.5
2018-Jun-20 01:00N 49°07' W 004°43'712.6
2018-Jun-20 00:26N 49°03' W 004°53'712.8
2018-Jun-19 23:55N 49°00' W 005°02'513.1
2018-Jun-19 23:30N 48°57' W 005°08'713.3
2018-Jun-19 23:00N 48°53' W 005°17'713.5
2018-Jun-19 22:31N 48°51' W 005°26'713.7
2018-Jun-19 22:00N 48°47' W 005°36'713.5
2018-Jun-19 21:31N 48°42' W 005°41'1713.9
2018-Jun-19 20:16N 48°26' W 005°54'813.9
2018-Jun-19 19:41N 48°19' W 005°59'413.9
2018-Jun-19 19:26N 48°16' W 006°02'713.8
2018-Jun-19 18:53N 48°10' W 006°07'814.1
2018-Jun-19 18:19N 48°02' W 006°12'413.8
2018-Jun-19 18:00N 47°59' W 006°15'50312.2
2018-Jun-18 00:44N 40°01' W 009°57'311.5
2018-Jun-18 00:29N 39°58' W 009°57'511.2
2018-Jun-18 00:00N 39°53' W 009°57'511.2
2018-Jun-17 23:30N 39°47' W 009°57'611.3
2018-Jun-17 22:58N 39°41' W 009°57'811.7
2018-Jun-17 22:15N 39°33' W 009°57'311.6
2018-Jun-17 22:00N 39°30' W 009°57'611.5
2018-Jun-17 21:30N 39°24' W 009°57'611.3
2018-Jun-17 21:00N 39°19' W 009°57'611.8
2018-Jun-17 20:31N 39°13' W 009°57'612.0
2018-Jun-17 20:00N 39°07' W 009°57'612.2
2018-Jun-17 19:30N 39°01' W 009°57'611.8
2018-Jun-17 19:00N 38°55' W 009°58'611.9
2018-Jun-17 18:30N 38°49' W 009°58'611.9
2018-Jun-17 18:01N 38°43' W 009°58'611.7
2018-Jun-17 17:30N 38°37' W 009°56'611.1
2018-Jun-17 17:01N 38°32' W 009°54'510.7
2018-Jun-17 16:30N 38°27' W 009°52'510.6
2018-Jun-17 16:01N 38°21' W 009°51'510.9
2018-Jun-17 15:31N 38°16' W 009°49'511.0
2018-Jun-17 15:01N 38°11' W 009°48'611.1
2018-Jun-17 14:31N 38°05' W 009°46'611.2
2018-Jun-17 14:01N 37°60' W 009°44'611.3
2018-Jun-17 13:30N 37°54' W 009°43'611.6
2018-Jun-17 13:00N 37°49' W 009°41'611.4
2018-Jun-17 12:31N 37°43' W 009°39'611.9
2018-Jun-17 12:01N 37°37' W 009°38'612.5
2018-Jun-17 11:30N 37°31' W 009°36'612.5
2018-Jun-17 11:00N 37°25' W 009°34'613.0
2018-Jun-17 10:30N 37°19' W 009°32'713.2
2018-Jun-17 10:01N 37°13' W 009°30'612.9
2018-Jun-17 09:30N 37°06' W 009°28'612.7
2018-Jun-17 09:00N 37°00' W 009°27'612.6
2018-Jun-17 08:31N 36°54' W 009°25'612.5
2018-Jun-17 08:00N 36°48' W 009°21'713.2
2018-Jun-17 07:31N 36°44' W 009°16'1312.5
2018-Jun-17 06:30N 36°38' W 009°02'713.5
2018-Jun-17 05:58N 36°36' W 008°53'613.0
2018-Jun-17 05:30N 36°34' W 008°46'713.5
2018-Jun-17 04:59N 36°33' W 008°37'913.7
2018-Jun-17 04:19N 36°31' W 008°26'413.8
2018-Jun-17 04:00N 36°30' W 008°21'813.8
2018-Jun-17 03:27N 36°28' W 008°12'614.1
2018-Jun-17 03:00N 36°26' W 008°04'714.1
2018-Jun-17 02:30N 36°24' W 007°56'714.4
2018-Jun-17 02:00N 36°22' W 007°47'11013.1
2018-Jun-16 17:37N 35°58' W 005°34'212.2
2018-Jun-16 17:29N 35°58' W 005°32'6 0.2
2018-Jun-15 04:20N 35°52' W 005°34'0 0.0
2018-Jun-14 21:08N 35°52' W 005°34'0 0.1
2018-Jun-14 20:50N 35°52' W 005°34'0 0.0
2018-Jun-14 20:14N 35°52' W 005°34'0 0.0
2018-Jun-14 19:56N 35°52' W 005°34'0 0.0
2018-Jun-14 01:26N 35°52' W 005°34'0 0.0
2018-Jun-13 22:08N 35°52' W 005°34'0 0.0
2018-Jun-13 21:50N 35°52' W 005°34'0 0.2
2018-Jun-13 20:50N 35°52' W 005°34'0 0.0
2018-Jun-13 12:26N 35°52' W 005°34'  

Dump ship's entire track history